Vancouver, British Columbia

3:22 AM PST on March 06, 2015 (GMT -0800)
Nelson Park | Change Station
CLOSE
Current Station
Personal Weather Station
Location: Vancouver, BRITISH COLUMBIA
Elevation: 141 ft
Nearby Weather Stations

Elev 141 ft 49.28 °N, 123.13 °W | Updated 1 minute ago

Partly Cloudy
Partly Cloudy
44.0 °F
Feels Like 44 °F
N
0.0
Wind Variable Wind from South
Gusts 4.0 mph

Today
High -- | Low -- °F
--% Chance of Precip.
Yesterday
High -- | Low -- °F
Precip. -- in
6:44 AM 6:03 PM
Full, 100% visible
Pressure 30.42 in
Visibility 30.0 miles
Clouds Few 7500 ft
Windchill 44 °F
Dew Point 40 °F
Humidity 84%
Rainfall in
Snow Depth Not available.
UV 0.0 out of 12
Pollen Not available.
Air Quality Not available.
Flu Activity Not available.
METAR CYVR 061100Z 00000KT 30SM FEW075 03/02 A3042 RMK AC1 SLP301

More Conditions Fewer Conditions

Pressure 30.42 in
Visibility 30.0 miles
Clouds Few 7500 ft
Windchill 44 °F
Dew Point 40 °F
Humidity 84%
Rainfall in
Snow Depth Not available.
UV 0.0 out of 12
Pollen Not available.
Air Quality Not available.
Flu Activity Not available.
METAR CYVR 061100Z 00000KT 30SM FEW075 03/02 A3042 RMK AC1 SLP301

More Conditions Fewer Conditions

10-Day Weather Forecast

Almanac

Astronomy

Mar. 06, 2015 Rise Set
Actual Time
Civil Twilight
Nautical Twilight
Astronomical Twilight
Moon
Length of Visible Light
Length of Day
Tomorrow will be .
, % of the Moon is Illuminated

Today's Extremes

Country Highs Country Lows

Community

WunderPhotos

Upload Photos

1,803,225 photos uploaded!

WunderBlogs® & News

Nearby

Air Quality

  Air Quality AQ Index Pollutant
Not available.

Snow Depth

Station Depth Elevation

Earthquake Activity

City Distance Mag. Time & Date
Minimum magnitude displayed is 2.5.

Coastal Water Temperatures

Place Temperature

Nearby Weather Stations